Allerte
Precipitazioni in corso 

Bari - Pales
Lecce
Lampedusa
Teramo
Canzano

Allerta Gelo (░C)  

Nessuna

Allerta Vento (km/h)  

Nessuna

Scarsa VisibilitÓ (m) 

Nessuna

Allerta Caldo (░C)  

Nessuna

Allerta Afa (░C-UR)  

Nessuna

Dati e Grafici Climatici 3-7 gg
L'OMTeA propone un elaborazione dei più importanti parametri meteorologici rilevati dalle stazioni che hanno aderito al progetto di monitoraggio. In questa sezione è possibile consultare i dati provenienti dalle centraline, interpretati attraverso output testuale e grafico.
Se vuoi aderire alla rete OMTeA vai alla pagina Info e leggi requisiti e vantaggi.

Stazione di Pomezia - www.pomeziameteo.it

Valori rilevati il 17/11/2018 alle ore 23:00

Temperatura atmosferica: 8.6 °C
Pressione atmosferica: 1015.4 mbar
Umidità relativa: 65 %
Intensità e direzione vento: 6.4 Km/h da NO

Altitudine: 108 metri s.l.m.
Latitudine: 41.41° N
Longitudine: 12.30° E



Entra nella rete OMTeA!. Potrai liberamente usare sul tuo sito questi grafici; info alla pagina Istruzioni.

Ultime 50 rilevazioni
Orario Temp
°C
Rugiada
°C
Prec.
mm
Press.
mbar
Umidità
%
Int. vento
km/h
Dir.
vento
23:00 - 17/11 8.6 2.4 0 1015.40 65 6.4 NO
22:45 - 17/11 8.9 2.5 0 1015.50 64 6.4 NO
22:30 - 17/11 9.1 2.4 0 1015.50 63 0 --
22:14 - 17/11 9.0 2.6 0 1015.80 64 0 --
22:00 - 17/11 8.9 2.7 0 1015.70 65 3.2 ONO
21:44 - 17/11 8.9 2.7 0 1015.70 65 0 --
21:29 - 17/11 9.0 2.8 0 1015.70 65 6.4 NO
21:14 - 17/11 9.1 2.9 0 1015.70 65 0 --
21:02 - 17/11 9.3 2.8 0 1015.60 64 6.4 NNO
20:45 - 17/11 9.6 2.9 0 1015.60 63 0 --
20:30 - 17/11 9.8 3.1 0 1015.60 63 0 --
20:15 - 17/11 9.8 3.1 0 1015.50 63 0 --
20:00 - 17/11 10.1 3.1 0 1015.60 62 0 --
19:44 - 17/11 10.3 3.1 0 1015.60 61 0 --
19:30 - 17/11 10.6 3.2 0 1015.60 60 0 --
19:14 - 17/11 11.2 3.5 0 1015.50 59 0 --
19:00 - 17/11 11.5 3.5 0 1015.60 58 0 --
18:44 - 17/11 11.7 3.5 0 1015.60 57 0 --
18:30 - 17/11 12.1 3.6 0 1015.70 56 0 --
18:15 - 17/11 12.3 3.8 0 1015.60 56 0 --
17:59 - 17/11 12.4 3.6 0 1015.50 55 0 --
17:46 - 17/11 12.6 3.8 0 1015.30 55 0 --
17:29 - 17/11 12.9 3.8 0 1015.20 54 8.0 NO
17:15 - 17/11 13.3 4.2 0 1015.10 54 0 --
16:59 - 17/11 13.8 4.1 0 1014.90 52 0 --
16:44 - 17/11 14.3 4.0 0 1014.80 50 0 --
16:29 - 17/11 14.8 3.9 0 1014.80 48 3.2 N
16:14 - 17/11 15.2 3.7 0 1014.90 46 0 --
15:59 - 17/11 15.4 3.5 0 1014.90 45 0 --
15:44 - 17/11 15.6 3.4 0 1015.00 44 0 --
15:29 - 17/11 15.8 3.2 0 1015.00 43 0 --
15:14 - 17/11 15.8 3.2 0 1015.00 43 0 --
14:59 - 17/11 15.8 3.6 0 1015.10 44 0 --
14:44 - 17/11 15.8 3.9 0 1015.20 45 0 --
14:29 - 17/11 16.1 4.2 0 1015.30 45 0 --
14:14 - 17/11 15.8 4.2 0 1015.30 46 0 --
13:59 - 17/11 15.8 4.5 0 1015.40 47 0 --
13:45 - 17/11 15.6 4.3 0 1015.50 47 0 --
13:29 - 17/11 15.5 4.2 0 1015.80 47 0 --
13:14 - 17/11 15.3 4.4 0 1016.00 48 1.6 N
12:59 - 17/11 15.4 4.4 0 1016.10 48 0 --
12:45 - 17/11 15.1 5.0 0 1016.30 51 0 --
12:29 - 17/11 15.2 4.6 0 1016.50 49 0 --
12:15 - 17/11 15.0 3.8 0 1016.70 47 0 --
11:59 - 17/11 14.8 4.2 0 1016.90 49 0 --
11:44 - 17/11 14.5 4.8 0 1017.10 52 0 --
11:29 - 17/11 13.9 5.8 0 1017.30 58 0 --
11:14 - 17/11 13.4 5.3 0 1017.50 58 9.7 NO
10:59 - 17/11 13.1 5.7 0 1017.70 61 0 --
10:44 - 17/11 12.8 5.9 0 1017.80 63 0 --


   In caso di mancato funzionamento di qualche risorsa, vi preghiamo di segnalarcelo alla pagina Contatti.
© 2018 Osservatorio Meteo OMTeA
Sito di informazione su Meteo, Tempo in atto e Clima in Italia